createdAt,value
2022-12-25T00:03:29.599Z,19.94
2022-12-25T00:09:56.312Z,19.86
2022-12-25T00:16:22.595Z,19.79
2022-12-25T00:22:54.601Z,19.91
2022-12-25T00:29:35.671Z,19.71
2022-12-25T00:36:10.254Z,19.76
2022-12-25T00:42:43.479Z,19.83
2022-12-25T00:49:17.513Z,19.77
2022-12-25T00:55:42.521Z,19.74
2022-12-25T01:02:11.679Z,19.81
2022-12-25T01:08:40.884Z,19.72
2022-12-25T01:15:05.465Z,19.71
2022-12-25T01:21:33.061Z,19.67
2022-12-25T01:28:01.457Z,19.76
2022-12-25T01:34:26.547Z,19.73
2022-12-25T01:40:54.746Z,19.76
2022-12-25T01:47:29.361Z,19.76
2022-12-25T01:54:13.047Z,19.71
2022-12-25T02:00:57.551Z,19.73
2022-12-25T02:07:31.500Z,19.73
2022-12-25T02:14:10.470Z,19.67
2022-12-25T02:21:08.925Z,19.71
2022-12-25T02:28:05.669Z,19.63
2022-12-25T02:35:08.505Z,19.66
2022-12-25T02:42:07.533Z,19.67
2022-12-25T02:48:58.424Z,19.62
2022-12-25T02:55:39.837Z,19.6
2022-12-25T03:02:26.623Z,19.68
2022-12-25T03:09:03.587Z,19.63
2022-12-25T03:15:49.119Z,19.64
2022-12-25T03:22:14.594Z,19.59
2022-12-25T03:28:46.523Z,19.59
2022-12-25T03:35:35.943Z,19.65
2022-12-25T03:42:50.506Z,19.62
2022-12-25T03:49:49.103Z,19.62
2022-12-25T03:56:46.320Z,19.64
2022-12-25T04:03:23.715Z,19.57
2022-12-25T04:09:45.565Z,19.54
2022-12-25T04:16:06.647Z,19.58
2022-12-25T04:22:27.666Z,19.56
2022-12-25T04:28:54.504Z,19.58
2022-12-25T04:35:18.551Z,19.59
2022-12-25T04:41:43.958Z,19.57
2022-12-25T04:48:03.650Z,19.52
2022-12-25T04:54:29.882Z,19.59
2022-12-25T05:00:57.525Z,19.6
2022-12-25T05:07:23.963Z,19.52
2022-12-25T05:13:51.877Z,19.77
2022-12-25T05:20:18.412Z,20.46
2022-12-25T05:26:50.410Z,21.04
2022-12-25T05:33:13.607Z,21.25
2022-12-25T05:39:43.640Z,21.21
2022-12-25T05:46:13.168Z,21.21
2022-12-25T05:52:44.260Z,21.24
2022-12-25T05:59:11.679Z,21.3
2022-12-25T06:05:37.554Z,21.3
2022-12-25T06:12:05.823Z,21.2
2022-12-25T06:18:40.820Z,21.05
2022-12-25T06:25:05.587Z,20.93
2022-12-25T06:31:26.811Z,20.95
2022-12-25T06:37:58.626Z,20.8
2022-12-25T06:44:25.191Z,20.73
2022-12-25T06:50:53.739Z,20.67
2022-12-25T06:57:21.782Z,20.54
2022-12-25T07:04:02.908Z,20.51
2022-12-25T07:10:29.688Z,20.44
2022-12-25T07:16:51.770Z,20.41
2022-12-25T07:23:18.592Z,20.27
2022-12-25T07:29:48.116Z,20.31
2022-12-25T07:36:26.623Z,20.28
2022-12-25T07:42:54.662Z,20.25
2022-12-25T07:49:17.590Z,20.17
2022-12-25T07:55:47.024Z,20.18
2022-12-25T08:02:22.887Z,20.13
2022-12-25T08:08:45.548Z,20.16
2022-12-25T08:15:22.662Z,20.12
2022-12-25T08:21:52.055Z,20.19
2022-12-25T08:28:18.450Z,20.23
2022-12-25T08:34:41.596Z,20.31
2022-12-25T08:41:05.637Z,20.35
2022-12-25T08:47:32.583Z,20.48
2022-12-25T08:53:59.911Z,20.42
2022-12-25T09:00:30.659Z,20.53
2022-12-25T09:06:56.215Z,20.49
2022-12-25T09:13:19.565Z,20.53
2022-12-25T09:19:41.229Z,20.48
2022-12-25T09:26:13.689Z,20.48
2022-12-25T09:32:43.764Z,20.44
2022-12-25T09:39:06.634Z,20.43
2022-12-25T09:45:54.494Z,20.44
2022-12-25T09:52:41.343Z,20.33
2022-12-25T09:59:32.707Z,20.44
2022-12-25T10:06:27.761Z,20.33
2022-12-25T10:13:41.310Z,20.41
2022-12-25T10:20:39.070Z,20.34
2022-12-25T10:27:29.041Z,20.4
2022-12-25T10:34:14.728Z,20.44
2022-12-25T10:40:51.830Z,20.37
2022-12-25T10:47:42.870Z,20.4
2022-12-25T10:54:20.079Z,20.35
2022-12-25T11:01:09.675Z,20.38
2022-12-25T11:07:55.139Z,20.33
2022-12-25T11:14:38.076Z,20.44
2022-12-25T11:21:32.117Z,20.5
2022-12-25T11:28:06.665Z,20.44
2022-12-25T11:35:08.702Z,20.37
2022-12-25T11:42:07.849Z,20.62
2022-12-25T11:49:13.763Z,20.53
2022-12-25T11:56:24.796Z,20.49
2022-12-25T12:03:21.936Z,20.57
2022-12-25T12:10:23.739Z,20.36
2022-12-25T12:17:16.307Z,20.39
2022-12-25T12:24:16.145Z,20.33
2022-12-25T12:31:20.685Z,20.41
2022-12-25T12:38:14.823Z,20.36
2022-12-25T12:45:12.914Z,20.44
2022-12-25T12:52:19.286Z,20.44
2022-12-25T12:59:07.950Z,20.37
2022-12-25T13:06:12.811Z,20.38
2022-12-25T13:13:13.951Z,20.39
2022-12-25T13:20:01.769Z,20.43
2022-12-25T13:26:46.957Z,20.35
2022-12-25T13:33:39.792Z,20.42
2022-12-25T13:40:25.879Z,20.38
2022-12-25T13:47:06.806Z,20.47
2022-12-25T13:53:53.775Z,20.38
2022-12-25T14:00:38.157Z,20.51
2022-12-25T14:07:22.817Z,20.4
2022-12-25T14:13:52.709Z,20.39
2022-12-25T14:20:34.841Z,20.43
2022-12-25T14:27:39.318Z,20.44
2022-12-25T14:34:30.815Z,20.39
2022-12-25T14:41:17.738Z,20.33
2022-12-25T14:48:25.162Z,20.36
2022-12-25T14:55:21.802Z,20.45
2022-12-25T15:02:16.956Z,20.4
2022-12-25T15:08:59.828Z,20.43
2022-12-25T15:15:28.404Z,20.58
2022-12-25T15:22:10.638Z,20.63
2022-12-25T15:28:38.819Z,20.7
2022-12-25T15:35:13.944Z,20.61
2022-12-25T15:41:51.169Z,20.53
2022-12-25T15:48:13.842Z,20.5
2022-12-25T15:54:35.911Z,20.59
2022-12-25T16:01:08.908Z,20.52
2022-12-25T16:07:39.016Z,20.46
2022-12-25T16:14:06.007Z,20.46
2022-12-25T16:20:31.930Z,20.37
2022-12-25T16:27:03.959Z,20.33
2022-12-25T16:33:31.931Z,20.39
2022-12-25T16:39:58.662Z,20.4
2022-12-25T16:46:24.937Z,20.42
2022-12-25T16:52:52.024Z,20.44
2022-12-25T16:59:23.936Z,20.39
2022-12-25T17:05:51.923Z,20.36
2022-12-25T17:12:24.005Z,20.31
2022-12-25T17:18:58.019Z,20.42
2022-12-25T17:25:30.682Z,20.4
2022-12-25T17:31:59.003Z,20.46
2022-12-25T17:38:33.939Z,20.42
2022-12-25T17:45:03.216Z,20.42
2022-12-25T17:51:28.903Z,20.52
2022-12-25T17:57:57.021Z,20.44
2022-12-25T18:04:26.989Z,20.3
2022-12-25T18:10:51.972Z,20.39
2022-12-25T18:17:18.957Z,20.37
2022-12-25T18:23:43.993Z,20.38
2022-12-25T18:30:08.030Z,20.33
2022-12-25T18:36:38.971Z,20.39
2022-12-25T18:43:05.980Z,20.47
2022-12-25T18:49:41.909Z,20.47
2022-12-25T18:56:19.000Z,20.34
2022-12-25T19:02:41.134Z,20.41
2022-12-25T19:09:01.889Z,20.43
2022-12-25T19:15:28.915Z,20.27
2022-12-25T19:21:54.973Z,20.39
2022-12-25T19:28:30.053Z,20.56
2022-12-25T19:34:56.926Z,20.68
2022-12-25T19:41:25.923Z,20.66
2022-12-25T19:47:52.033Z,20.64
2022-12-25T19:54:28.416Z,20.73
2022-12-25T20:00:58.065Z,20.63
2022-12-25T20:07:33.561Z,20.52
2022-12-25T20:13:58.924Z,20.42
2022-12-25T20:20:24.987Z,20.34
2022-12-25T20:27:02.942Z,20.45
2022-12-25T20:33:29.439Z,20.42
2022-12-25T20:39:57.082Z,20.3
2022-12-25T20:46:28.123Z,20.24
2022-12-25T20:52:59.199Z,20.17
2022-12-25T20:59:33.575Z,20.16
2022-12-25T21:06:01.979Z,20.14
2022-12-25T21:12:25.956Z,20.11
2022-12-25T21:19:01.962Z,20.05
2022-12-25T21:25:29.872Z,20.03
2022-12-25T21:32:03.091Z,20.09
2022-12-25T21:38:25.862Z,20.05
2022-12-25T21:45:01.994Z,20.04
2022-12-25T21:51:24.977Z,20.04
2022-12-25T21:57:53.887Z,20
2022-12-25T22:04:19.984Z,19.98
2022-12-25T22:10:54.027Z,19.95
2022-12-25T22:17:23.351Z,20
2022-12-25T22:23:53.997Z,19.95
2022-12-25T22:30:33.047Z,19.93
2022-12-25T22:36:54.870Z,19.9
2022-12-25T22:43:22.552Z,19.94
2022-12-25T22:50:05.108Z,19.93
2022-12-25T22:56:31.974Z,19.92
2022-12-25T23:03:01.171Z,19.91
2022-12-25T23:09:27.079Z,19.91
2022-12-25T23:15:54.117Z,19.86
2022-12-25T23:22:19.085Z,19.92
2022-12-25T23:28:44.032Z,19.96
2022-12-25T23:35:06.041Z,19.9
2022-12-25T23:41:33.574Z,19.94
2022-12-25T23:47:57.104Z,19.91
2022-12-25T23:54:20.398Z,19.87
